Time;durP1;ratioP1;P1;durP2;ratioP2;P2;SDS_P1;SDS_P2;PMS_P1;PMS_P2;Temp;Humidity;BMP_temperature;BMP_pressure;BME280_temperature;BME280_humidity;BME280_pressure;Samples;Min_cycle;Max_cycle;Signal;HPM_P1;HPM_P2
2021/05/16 00:02:33;;;;;;;4.97;3.70;;;;;;;12.23;75.55;97926.58;2179070;82;20954;-75
2021/05/16 00:05:35;;;;;;;3.67;3.37;;;;;;;12.24;75.75;97927.01;2163812;81;21082;-76
2021/05/16 00:08:36;;;;;;;4.22;3.85;;;;;;;12.25;75.74;97926.99;2161641;82;21287;-77
2021/05/16 00:11:37;;;;;;;3.98;3.67;;;;;;;12.26;75.83;97917.39;2161549;82;20943;-76
2021/05/16 00:14:37;;;;;;;3.92;3.62;;;;;;;12.28;75.84;97916.94;2161536;82;21331;-76
2021/05/16 00:17:38;;;;;;;4.25;3.90;;;;;;;12.27;75.84;97921.75;2161433;82;20927;-76
2021/05/16 00:20:39;;;;;;;4.10;3.70;;;;;;;12.27;75.78;97912.59;2161545;82;20931;-76
2021/05/16 00:23:40;;;;;;;5.28;3.92;;;;;;;12.26;75.99;97911.72;2161401;82;20939;-76
2021/05/16 00:26:41;;;;;;;4.97;4.55;;;;;;;12.26;76.46;97912.16;2161485;82;21185;-76
2021/05/16 00:29:42;;;;;;;4.00;3.60;;;;;;;12.26;76.27;97914.34;2161525;82;20931;-76
2021/05/16 00:32:43;;;;;;;3.80;3.50;;;;;;;12.26;76.26;97911.72;2161429;82;20935;-76
2021/05/16 00:35:44;;;;;;;4.33;3.85;;;;;;;12.27;76.18;97923.92;2161507;82;20983;-76
2021/05/16 00:38:45;;;;;;;4.43;3.90;;;;;;;12.25;76.10;97911.73;2161405;82;20970;-77
2021/05/16 00:41:46;;;;;;;5.30;4.03;;;;;;;12.28;76.27;97918.25;2161420;82;20998;-76
2021/05/16 00:44:47;;;;;;;5.28;4.45;;;;;;;12.27;76.15;97912.14;2161480;82;20982;-76
2021/05/16 00:47:48;;;;;;;4.28;3.95;;;;;;;12.28;76.36;97914.33;2161380;82;20978;-76
2021/05/16 00:50:49;;;;;;;4.70;4.22;;;;;;;12.29;76.27;97913.44;2161549;82;20942;-77
2021/05/16 00:53:50;;;;;;;5.45;4.37;;;;;;;12.31;76.22;97906.44;2161429;82;20966;-76
2021/05/16 00:56:51;;;;;;;7.80;4.20;;;;;;;12.33;76.28;97909.91;2161430;82;21304;-76
2021/05/16 00:59:52;;;;;;;5.33;4.28;;;;;;;12.32;76.33;97898.58;2161555;82;21014;-76
2021/05/16 01:02:52;;;;;;;7.47;4.90;;;;;;;12.33;76.15;97893.77;2161394;82;20935;-76
2021/05/16 01:05:53;;;;;;;4.70;4.30;;;;;;;12.28;76.11;97896.01;2176559;81;21109;-76
2021/05/16 01:08:58;;;;;;;4.50;4.10;;;;;;;12.27;76.29;97897.76;2179058;82;21480;-76
2021/05/16 01:11:58;;;;;;;4.90;4.50;;;;;;;12.28;76.64;97901.23;2178313;82;21346;-76
2021/05/16 01:15:03;;;;;;;4.60;4.20;;;;;;;12.24;76.50;97888.63;2178778;82;20922;-76
2021/05/16 01:18:02;;;;;;;6.08;4.28;;;;;;;12.21;76.24;97889.10;2178422;82;21021;-76
2021/05/16 01:21:03;;;;;;;4.80;4.40;;;;;;;12.20;76.43;97883.00;2178767;82;21013;-77
2021/05/16 01:24:04;;;;;;;5.00;4.60;;;;;;;12.20;76.74;97891.29;2178761;82;21006;-76
2021/05/16 01:27:05;;;;;;;5.72;4.83;;;;;;;12.18;76.59;97891.30;2178761;82;21000;-76
2021/05/16 01:30:06;;;;;;;5.40;5.00;;;;;;;12.16;76.40;97889.14;2178831;82;20922;-76
2021/05/16 01:33:07;;;;;;;9.13;4.45;;;;;;;12.15;76.30;97890.47;2178773;82;20937;-76
2021/05/16 01:36:08;;;;;;;7.25;4.90;;;;;;;12.10;76.31;97883.50;2178754;82;21017;-75
2021/05/16 01:39:09;;;;;;;6.70;5.37;;;;;;;12.07;76.39;97886.59;2178753;82;20949;-76
2021/05/16 01:42:10;;;;;;;5.73;5.13;;;;;;;12.05;76.42;97880.50;2178745;82;21407;-76
2021/05/16 01:45:13;;;;;;;5.70;4.83;;;;;;;12.01;76.38;97878.80;2178705;82;20942;-76
2021/05/16 01:48:13;;;;;;;5.28;4.67;;;;;;;11.96;76.34;97877.97;2178857;82;21017;-75
2021/05/16 01:51:14;;;;;;;5.62;5.12;;;;;;;11.89;76.38;97881.08;2178923;82;20982;-76
2021/05/16 01:54:16;;;;;;;6.45;5.78;;;;;;;11.82;76.40;97876.78;2178693;82;20974;-76
2021/05/16 01:57:17;;;;;;;5.40;4.90;;;;;;;11.77;76.59;97874.20;2178748;82;20915;-76
2021/05/16 02:00:18;;;;;;;8.20;5.40;;;;;;;11.70;76.50;97878.16;2178699;82;20914;-76
2021/05/16 02:03:19;;;;;;;5.45;5.05;;;;;;;11.65;76.60;97876.02;2178755;82;21319;-76
2021/05/16 02:06:20;;;;;;;5.78;5.17;;;;;;;11.56;76.71;97876.09;2162710;81;21021;-76
2021/05/16 02:09:21;;;;;;;7.67;5.80;;;;;;;11.51;76.83;97879.18;2161341;82;20911;-76
2021/05/16 02:12:22;;;;;;;5.63;5.10;;;;;;;11.43;76.95;97876.19;2161371;82;20978;-75
2021/05/16 02:15:23;;;;;;;5.72;5.17;;;;;;;11.40;77.01;97878.81;2161605;82;20974;-76
2021/05/16 02:18:24;;;;;;;14.27;5.80;;;;;;;11.34;77.14;97876.69;2161552;82;20935;-75
2021/05/16 02:21:25;;;;;;;6.37;5.73;;;;;;;11.27;77.17;97876.27;2161351;82;21324;-76
2021/05/16 02:24:26;;;;;;;6.53;5.53;;;;;;;11.22;77.28;97876.29;2161291;82;21412;-76
2021/05/16 02:27:27;;;;;;;6.40;5.80;;;;;;;11.21;77.37;97875.86;2161307;82;20986;-76
2021/05/16 02:30:28;;;;;;;7.33;5.20;;;;;;;11.17;77.26;97876.75;2161304;82;21300;-76
2021/05/16 02:33:28;;;;;;;6.10;5.57;;;;;;;11.12;77.08;97877.22;2161334;82;20911;-76
2021/05/16 02:36:29;;;;;;;8.27;6.27;;;;;;;11.06;77.28;97870.73;2161289;82;21450;-75
2021/05/16 02:39:30;;;;;;;6.10;5.53;;;;;;;11.00;77.27;97874.68;2161445;82;20930;-76
2021/05/16 02:42:31;;;;;;;6.63;5.90;;;;;;;10.95;77.24;97875.14;2161332;82;20994;-76
2021/05/16 02:45:32;;;;;;;6.30;5.80;;;;;;;10.89;77.34;97873.86;2161298;82;21075;-76
2021/05/16 02:48:33;;;;;;;8.47;5.90;;;;;;;10.85;77.39;97867.36;2161296;82;21371;-77
2021/05/16 02:51:34;;;;;;;6.57;5.83;;;;;;;10.83;77.52;97867.80;2161505;82;20971;-76
2021/05/16 02:54:35;;;;;;;6.43;5.73;;;;;;;10.80;77.42;97866.95;2161475;82;21022;-76
2021/05/16 02:57:36;;;;;;;7.70;6.97;;;;;;;10.77;77.57;97866.96;2161632;82;21003;-76
2021/05/16 03:00:37;;;;;;;6.50;5.90;;;;;;;10.76;77.56;97859.56;2161744;82;21410;-76
2021/05/16 03:03:38;;;;;;;7.37;5.80;;;;;;;10.78;77.54;97862.17;2161623;82;21390;-76
2021/05/16 03:06:39;;;;;;;9.37;6.23;;;;;;;10.77;77.54;97865.66;2161458;82;21014;-76
2021/05/16 03:09:40;;;;;;;11.67;6.67;;;;;;;10.75;77.49;97861.75;2161753;82;21513;-76
2021/05/16 03:12:41;;;;;;;7.30;6.43;;;;;;;10.73;77.37;97862.62;2161613;82;20949;-76
2021/05/16 03:15:42;;;;;;;6.93;5.87;;;;;;;10.70;77.28;97856.98;2161475;82;21014;-77
2021/05/16 03:18:43;;;;;;;6.80;6.20;;;;;;;10.69;77.27;97850.03;2161570;82;21046;-76
2021/05/16 03:21:44;;;;;;;6.70;6.10;;;;;;;10.70;77.47;97854.38;2161486;82;21030;-75
2021/05/16 03:24:45;;;;;;;6.17;5.57;;;;;;;10.76;77.53;97858.27;2161439;82;20966;-77
2021/05/16 03:27:46;;;;;;;6.07;5.43;;;;;;;10.80;77.18;97849.98;2161584;82;20947;-76
2021/05/16 03:30:47;;;;;;;7.23;6.53;;;;;;;10.81;77.22;97852.58;2161452;82;21348;-76
2021/05/16 03:33:47;;;;;;;6.87;6.17;;;;;;;10.87;77.27;97848.20;2161439;82;20958;-76
2021/05/16 03:36:48;;;;;;;7.03;5.57;;;;;;;10.93;77.03;97849.04;2161434;82;21001;-76
2021/05/16 03:39:49;;;;;;;7.40;6.70;;;;;;;10.97;76.98;97851.20;2161552;82;20971;-76
2021/05/16 03:42:50;;;;;;;7.13;6.00;;;;;;;11.05;77.12;97849.41;2161693;82;21006;-75
2021/05/16 03:45:51;;;;;;;7.63;6.83;;;;;;;11.15;76.93;97849.34;2161411;82;21017;-77
2021/05/16 03:48:52;;;;;;;8.28;7.03;;;;;;;11.30;76.97;97856.24;2161535;82;20942;-76
2021/05/16 03:51:53;;;;;;;10.15;7.25;;;;;;;11.44;76.80;97855.70;2161449;82;20950;-76
2021/05/16 03:54:54;;;;;;;10.65;7.10;;;;;;;11.59;76.80;97849.94;2161567;82;21026;-76
2021/05/16 03:57:55;;;;;;;9.28;6.97;;;;;;;11.71;76.68;97855.06;2161580;82;20916;-76
2021/05/16 04:00:57;;;;;;;8.20;7.05;;;;;;;11.90;76.69;97850.56;2161527;82;20934;-77
2021/05/16 04:03:58;;;;;;;7.33;6.65;;;;;;;12.08;76.42;97855.62;2161644;82;20999;-77
2021/05/16 04:06:59;;;;;;;7.67;6.87;;;;;;;12.27;76.35;97845.87;2170907;81;21037;-76
2021/05/16 04:10:00;;;;;;;8.30;7.22;;;;;;;12.44;76.12;97855.70;2171665;82;21315;-76
2021/05/16 04:13:01;;;;;;;7.90;7.10;;;;;;;12.65;75.75;97848.91;2171579;82;20934;-76
2021/05/16 04:16:02;;;;;;;7.87;7.03;;;;;;;12.88;75.40;97854.30;2171688;82;20923;-76
2021/05/16 04:19:03;;;;;;;7.65;6.95;;;;;;;13.13;75.18;97846.56;2171580;82;21283;-77
2021/05/16 04:22:03;;;;;;;7.40;6.67;;;;;;;13.36;74.82;97848.43;2171547;82;21315;-76
2021/05/16 04:25:04;;;;;;;8.78;7.03;;;;;;;13.61;74.09;97846.73;2171545;82;20958;-76
2021/05/16 04:28:05;;;;;;;7.95;7.15;;;;;;;13.75;73.52;97846.52;2171555;82;20930;-76
2021/05/16 04:31:06;;;;;;;8.00;7.30;;;;;;;13.85;73.03;97842.84;2171592;82;21282;-76
2021/05/16 04:34:07;;;;;;;7.65;6.95;;;;;;;13.89;72.88;97842.80;2171645;82;20946;-76
2021/05/16 04:37:08;;;;;;;9.53;6.65;;;;;;;14.01;72.31;97847.83;2171543;82;21394;-76
2021/05/16 04:40:09;;;;;;;9.40;7.20;;;;;;;14.25;72.15;97843.89;2171683;82;20978;-76
2021/05/16 04:43:12;;;;;;;6.92;6.33;;;;;;;14.56;72.00;97852.52;2171533;82;21354;-77
2021/05/16 04:46:13;;;;;;;7.35;6.65;;;;;;;14.81;71.42;97856.41;2171656;82;20982;-76
2021/05/16 04:49:15;;;;;;;7.85;6.33;;;;;;;15.07;70.91;97851.05;2171495;82;20924;-76
2021/05/16 04:52:16;;;;;;;6.95;6.30;;;;;;;15.30;70.09;97852.72;2171700;82;20986;-78
2021/05/16 04:55:17;;;;;;;7.45;6.45;;;;;;;15.52;69.61;97848.69;2171541;82;20911;-76
2021/05/16 04:58:17;;;;;;;7.53;6.17;;;;;;;15.96;72.08;97844.16;2171712;82;20972;-76
2021/05/16 05:01:18;;;;;;;10.55;9.45;;;;;;;16.85;67.54;97849.26;2171602;82;20922;-76
2021/05/16 05:04:20;;;;;;;6.60;5.90;;;;;;;17.51;67.28;97841.55;2171634;82;20955;-76
2021/05/16 05:07:21;;;;;;;6.35;5.70;;;;;;;18.46;64.68;97845.42;2178679;81;21019;-76
2021/05/16 05:10:22;;;;;;;7.00;5.80;;;;;;;19.31;64.53;97844.53;2178908;82;20938;-75
2021/05/16 05:13:24;;;;;;;7.33;5.37;;;;;;;19.93;62.31;97842.50;2178875;82;21017;-76
2021/05/16 05:16:25;;;;;;;6.45;5.85;;;;;;;20.29;61.33;97844.08;2178774;82;21303;-76
2021/05/16 05:19:26;;;;;;;5.40;4.90;;;;;;;20.79;60.18;97843.22;2178729;82;21314;-76
2021/05/16 05:22:28;;;;;;;6.17;5.00;;;;;;;21.22;57.85;97845.26;2178883;82;21338;-77
2021/05/16 05:25:29;;;;;;;7.12;4.97;;;;;;;21.37;56.22;97843.70;2178720;82;21017;-76
2021/05/16 05:28:30;;;;;;;7.67;5.17;;;;;;;21.23;55.65;97839.05;2178861;82;20954;-75
2021/05/16 05:31:31;;;;;;;7.95;6.90;;;;;;;21.76;53.64;97835.65;2179068;82;20934;-78
2021/05/16 05:34:32;;;;;;;5.87;5.33;;;;;;;22.19;50.76;97822.44;2179019;82;21381;-76
2021/05/16 05:37:33;;;;;;;5.75;4.58;;;;;;;22.42;49.93;97826.57;2178724;82;21386;-76
2021/05/16 05:40:34;;;;;;;4.40;4.00;;;;;;;22.33;49.66;97827.05;2178853;82;21374;-76
2021/05/16 05:43:35;;;;;;;5.30;4.80;;;;;;;22.27;49.76;97820.72;2178741;82;21049;-76
2021/05/16 05:46:36;;;;;;;4.95;4.42;;;;;;;22.55;50.13;97821.03;2179111;82;20918;-76
2021/05/16 05:49:38;;;;;;;3.10;2.90;;;;;;;22.68;48.23;97821.25;2178729;82;20899;-76
2021/05/16 05:52:39;;;;;;;4.62;3.30;;;;;;;22.64;46.87;97816.55;2178888;82;21001;-78
2021/05/16 05:55:40;;;;;;;2.27;2.08;;;;;;;22.18;48.09;97820.25;2178770;82;20958;-76
2021/05/16 05:58:41;;;;;;;2.20;2.10;;;;;;;22.38;47.04;97821.02;2178849;82;20899;-76
2021/05/16 06:01:42;;;;;;;2.35;2.02;;;;;;;22.10;47.64;97827.75;2178743;82;20894;-76
2021/05/16 06:04:43;;;;;;;3.47;2.47;;;;;;;22.28;47.31;97822.44;2178799;82;20954;-77
2021/05/16 06:07:44;;;;;;;20.17;16.95;;;;;;;22.11;47.44;97821.50;2178868;82;20997;-76
2021/05/16 06:10:44;;;;;;;30.97;26.73;;;;;;;21.93;47.35;97821.92;2178893;81;20926;-76
2021/05/16 06:13:45;;;;;;;36.42;31.17;;;;;;;22.13;47.92;97824.94;2178716;81;21144;-76
2021/05/16 06:16:46;;;;;;;14.53;12.85;;;;;;;22.24;46.92;97822.59;2178900;82;20942;-77
2021/05/16 06:19:47;;;;;;;9.83;7.92;;;;;;;21.87;47.97;97821.37;2178607;82;20994;-76
2021/05/16 06:22:48;;;;;;;11.43;8.55;;;;;;;22.16;47.06;97817.28;2178394;82;20966;-76
2021/05/16 06:25:49;;;;;;;6.80;6.20;;;;;;;22.47;46.70;97813.89;2178928;82;21085;-76
2021/05/16 06:28:50;;;;;;;2.27;2.08;;;;;;;22.72;46.40;97822.80;2178924;82;20969;-76
2021/05/16 06:31:51;;;;;;;5.03;3.30;;;;;;;21.74;45.66;97822.91;2179088;82;20954;-76
2021/05/16 06:34:52;;;;;;;1.98;1.85;;;;;;;21.62;47.56;97826.53;2178935;82;20913;-79
2021/05/16 06:37:53;;;;;;;2.20;2.00;;;;;;;20.75;46.75;97820.42;2178991;82;21049;-76
2021/05/16 06:40:54;;;;;;;17.00;3.80;;;;;;;20.61;49.69;97826.34;2179049;82;20906;-77
2021/05/16 06:43:55;;;;;;;3.15;2.85;;;;;;;21.31;48.75;97816.99;2179067;82;21058;-78
2021/05/16 06:46:56;;;;;;;2.52;2.33;;;;;;;22.33;46.51;97821.73;2178947;82;20966;-77
2021/05/16 06:49:57;;;;;;;2.15;1.90;;;;;;;23.06;44.17;97823.20;2179014;82;20997;-78
2021/05/16 06:52:58;;;;;;;2.22;2.00;;;;;;;23.50;43.95;97818.97;2178949;82;20938;-77
2021/05/16 06:55:59;;;;;;;2.20;1.47;;;;;;;23.86;42.77;97824.50;2179100;82;20998;-77
2021/05/16 06:59:00;;;;;;;2.17;1.30;;;;;;;23.19;40.70;97821.59;2179061;82;20934;-77
2021/05/16 07:02:01;;;;;;;2.90;1.80;;;;;;;22.39;43.94;97827.59;2178958;82;20984;-76
2021/05/16 07:05:02;;;;;;;2.25;1.72;;;;;;;22.58;43.95;97824.86;2178963;81;21024;-76
2021/05/16 07:08:03;;;;;;;1.47;1.20;;;;;;;22.91;43.52;97833.35;2178861;82;21052;-77
2021/05/16 07:11:03;;;;;;;2.22;1.50;;;;;;;23.18;43.54;97838.03;2179075;82;20907;-76
2021/05/16 07:14:04;;;;;;;51.90;44.10;;;;;;;23.37;42.48;97838.34;2178984;82;21007;-77
2021/05/16 07:17:05;;;;;;;142.18;119.53;;;;;;;23.25;42.14;97846.55;2179106;82;20915;-76
2021/05/16 07:20:06;;;;;;;17.15;15.43;;;;;;;23.04;43.26;97843.72;2178935;81;20926;-78
2021/05/16 07:23:07;;;;;;;20.57;16.45;;;;;;;23.11;42.81;97849.09;2179017;82;20931;-76
2021/05/16 07:26:08;;;;;;;7.97;7.22;;;;;;;22.92;43.33;97851.03;2178886;81;20978;-76
2021/05/16 07:29:09;;;;;;;11.68;10.48;;;;;;;22.78;43.41;97854.39;2179038;82;20965;-77
2021/05/16 07:32:10;;;;;;;6.00;3.77;;;;;;;22.56;44.09;97846.69;2179041;81;20918;-78
2021/05/16 07:35:11;;;;;;;3.05;2.42;;;;;;;22.55;44.01;97844.50;2178891;82;21334;-76
2021/05/16 07:38:12;;;;;;;3.17;2.83;;;;;;;22.70;44.07;97845.96;2178990;82;21073;-76
2021/05/16 07:41:13;;;;;;;2.22;2.00;;;;;;;22.43;44.29;97842.91;2178904;82;20942;-78
2021/05/16 07:44:14;;;;;;;2.02;1.75;;;;;;;22.16;45.41;97840.73;2178971;82;21049;-77
2021/05/16 07:47:15;;;;;;;1.70;1.60;;;;;;;21.75;46.38;97840.56;2178863;82;20973;-76
2021/05/16 07:53:19;;;;;;;2.20;1.95;;;;;;;21.84;45.88;97832.14;2150870;82;21018;-76
2021/05/16 07:56:20;;;;;;;6.95;3.37;;;;;;;21.28;47.27;97836.58;2178998;82;20942;-77
2021/05/16 07:59:21;;;;;;;7.67;4.80;;;;;;;21.46;47.44;97830.00;2178842;82;20974;-77
2021/05/16 08:02:22;;;;;;;3.98;1.90;;;;;;;22.20;46.49;97839.63;2178989;82;20922;-77
2021/05/16 08:05:23;;;;;;;2.52;1.60;;;;;;;22.37;43.98;97848.08;2178222;81;20985;-76
2021/05/16 08:08:24;;;;;;;2.95;1.70;;;;;;;21.99;45.04;97848.66;2161530;82;21331;-76
2021/05/16 08:11:24;;;;;;;2.92;1.60;;;;;;;21.27;46.82;97843.28;2161610;82;21279;-77
2021/05/16 08:14:28;;;;;;;2.75;1.57;;;;;;;21.97;46.44;97837.71;2161441;82;20891;-77
2021/05/16 08:17:28;;;;;;;4.05;1.92;;;;;;;22.81;45.04;97839.16;2161489;82;20939;-76
2021/05/16 08:20:29;;;;;;;3.77;1.98;;;;;;;23.01;43.24;97843.89;2161573;82;20950;-76
2021/05/16 08:23:30;;;;;;;2.60;1.62;;;;;;;23.18;42.61;97842.03;2161446;82;20946;-77
2021/05/16 08:26:31;;;;;;;7.12;1.87;;;;;;;22.30;43.83;97848.00;2161556;82;20926;-76
2021/05/16 08:29:32;;;;;;;8.90;1.95;;;;;;;22.22;44.61;97849.72;2161434;82;20946;-76
2021/05/16 08:32:33;;;;;;;4.65;1.70;;;;;;;21.20;46.44;97851.10;2161562;82;20963;-76
2021/05/16 08:35:34;;;;;;;3.58;1.82;;;;;;;20.76;47.49;97852.63;2161435;82;20899;-76
2021/05/16 08:38:35;;;;;;;4.15;1.80;;;;;;;20.64;48.47;97854.51;2161521;82;21082;-76
2021/05/16 08:41:36;;;;;;;2.52;1.65;;;;;;;20.58;48.18;97855.64;2161433;82;20911;-76
2021/05/16 08:44:37;;;;;;;2.55;1.57;;;;;;;20.17;49.31;97849.45;2161546;82;21018;-76
2021/05/16 08:47:38;;;;;;;2.90;1.75;;;;;;;20.31;49.58;97855.02;2161393;82;20966;-75
2021/05/16 08:50:39;;;;;;;4.85;1.70;;;;;;;19.89;49.79;97867.38;2161516;82;20907;-76
2021/05/16 08:53:40;;;;;;;3.42;2.00;;;;;;;20.15;50.75;97864.55;2161401;82;21010;-77
2021/05/16 08:56:41;;;;;;;8.48;2.35;;;;;;;20.47;49.77;97858.36;2161538;82;20956;-77
2021/05/16 08:59:42;;;;;;;7.37;2.70;;;;;;;20.72;49.33;97862.98;2161390;82;20979;-76
2021/05/16 09:02:44;;;;;;;9.38;2.70;;;;;;;19.79;51.11;97863.38;2161521;82;21363;-76
2021/05/16 09:05:45;;;;;;;4.62;1.87;;;;;;;20.05;52.01;97868.50;2162019;81;20950;-77
2021/05/16 09:08:46;;;;;;;4.17;2.12;;;;;;;20.59;50.72;97867.97;2171465;82;21373;-77
2021/05/16 09:11:46;;;;;;;7.95;4.53;;;;;;;20.71;50.90;97885.13;2171539;82;20919;-75
2021/05/16 09:14:48;;;;;;;3.98;2.15;;;;;;;20.11;51.85;97883.28;2171561;82;20966;-78
2021/05/16 09:17:48;;;;;;;2.20;1.80;;;;;;;20.19;52.49;97887.80;2171852;82;20927;-78
2021/05/16 09:20:49;;;;;;;3.12;2.25;;;;;;;19.47;53.02;97885.81;2172056;82;21299;-78
2021/05/16 09:23:50;;;;;;;9.85;2.40;;;;;;;18.70;54.49;97893.07;2171999;82;20922;-80
2021/05/16 09:26:51;;;;;;;2.08;1.85;;;;;;;18.16;56.75;97897.97;2171895;82;20942;-80
2021/05/16 09:29:53;;;;;;;2.45;1.80;;;;;;;17.65;57.52;97899.17;2171993;82;20907;-78
2021/05/16 09:32:54;;;;;;;1.77;1.50;;;;;;;17.49;58.71;97893.51;2171967;82;20942;-77
2021/05/16 09:35:55;;;;;;;1.65;1.30;;;;;;;17.61;59.31;97893.58;2172095;82;21358;-78
2021/05/16 09:38:56;;;;;;;2.15;1.20;;;;;;;17.81;58.13;97892.06;2171866;82;21014;-77
2021/05/16 09:41:57;;;;;;;2.95;1.40;;;;;;;17.75;57.48;97898.00;2171969;82;21287;-79
2021/05/16 09:45:01;;;;;;;1.77;1.30;;;;;;;17.78;58.77;97900.08;2171745;82;21375;-76
2021/05/16 09:48:01;;;;;;;3.92;1.20;;;;;;;17.81;57.06;97890.75;2171500;82;21016;-79
2021/05/16 09:51:02;;;;;;;1.42;1.32;;;;;;;17.67;56.97;97894.74;2172112;82;21378;-78
2021/05/16 09:54:02;;;;;;;1.85;1.67;;;;;;;17.47;57.72;97890.91;2172059;82;21307;-81
2021/05/16 09:57:04;;;;;;;2.30;1.40;;;;;;;17.50;58.19;97899.19;2172031;82;20910;-79
2021/05/16 10:00:04;;;;;;;2.12;1.60;;;;;;;17.56;58.17;97894.18;2172035;82;21355;-78
2021/05/16 10:03:07;;;;;;;1.95;1.30;;;;;;;17.55;58.93;97895.95;2172076;82;20902;-79
2021/05/16 10:06:07;;;;;;;1.62;1.37;;;;;;;17.49;58.74;97897.46;2170827;81;21014;-78
2021/05/16 10:09:08;;;;;;;1.92;1.50;;;;;;;17.41;58.81;97893.74;2161730;82;21010;-78
2021/05/16 10:12:09;;;;;;;1.85;1.40;;;;;;;17.38;59.70;97897.80;2161836;82;20974;-77
2021/05/16 10:15:10;;;;;;;2.00;1.47;;;;;;;17.35;59.64;97897.89;2161321;82;20939;-78
2021/05/16 10:18:11;;;;;;;2.77;1.42;;;;;;;17.45;59.85;97899.79;2161667;82;21022;-77
2021/05/16 10:21:12;;;;;;;1.75;1.62;;;;;;;17.74;59.53;97898.45;2161777;82;21010;-79
2021/05/16 10:24:13;;;;;;;2.50;1.60;;;;;;;18.14;59.72;97895.83;2161643;82;21058;-78
2021/05/16 10:27:14;;;;;;;10.32;8.10;;;;;;;18.47;58.83;97887.25;2161555;82;20966;-78
2021/05/16 10:30:15;;;;;;;2.95;2.02;;;;;;;18.78;57.23;97882.63;2161717;82;20942;-78
2021/05/16 10:33:16;;;;;;;1.92;1.50;;;;;;;19.07;56.03;97873.65;2161846;82;20962;-77
2021/05/16 10:36:17;;;;;;;1.80;1.70;;;;;;;19.39;55.56;97881.68;2161732;82;21311;-80
2021/05/16 10:39:18;;;;;;;1.70;1.60;;;;;;;19.69;54.18;97871.70;2161819;82;21394;-78
2021/05/16 10:42:19;;;;;;;1.55;1.45;;;;;;;19.97;52.84;97877.23;2161702;82;21268;-77
2021/05/16 10:45:20;;;;;;;2.12;1.55;;;;;;;20.18;53.61;97878.98;2161682;82;21034;-77
2021/05/16 10:48:28;;;;;;;2.35;1.90;;;;;;;20.34;52.79;97865.48;2161599;82;21259;-79
2021/05/16 10:51:24;;;;;;;3.37;1.82;;;;;;;20.29;52.41;97862.63;2160930;82;21398;-78
2021/05/16 10:54:25;;;;;;;3.65;1.60;;;;;;;20.46;52.13;97860.62;2161321;82;21083;-76
2021/05/16 10:57:26;;;;;;;2.10;1.57;;;;;;;20.61;49.52;97862.59;2161405;82;20942;-77
2021/05/16 11:00:29;;;;;;;1.40;1.30;;;;;;;20.86;49.45;97870.36;2161420;82;20962;-77
2021/05/16 11:03:30;;;;;;;1.60;1.42;;;;;;;21.01;48.93;97860.84;2161498;82;21002;-78
2021/05/16 11:06:30;;;;;;;1.35;1.25;;;;;;;20.98;46.22;97869.34;2163894;81;20994;-79
2021/05/16 11:09:35;;;;;;;1.15;1.05;;;;;;;20.96;46.84;97869.88;2178866;82;20962;-77
2021/05/16 11:12:34;;;;;;;3.40;1.40;;;;;;;20.92;45.81;97866.97;2179061;82;20950;-78
2021/05/16 11:15:35;;;;;;;2.12;1.47;;;;;;;20.90;45.88;97874.59;2179327;82;21445;-79
2021/05/16 11:18:36;;;;;;;1.92;1.50;;;;;;;20.88;46.55;97872.02;2179488;82;21338;-78
2021/05/16 11:21:37;;;;;;;1.65;1.32;;;;;;;20.84;47.11;97876.20;2179393;82;20938;-79
2021/05/16 11:24:38;;;;;;;1.47;1.37;;;;;;;20.79;46.53;97868.88;2179374;82;20986;-78
2021/05/16 11:27:39;;;;;;;1.95;1.52;;;;;;;20.68;45.96;97870.67;2179121;82;20982;-79
2021/05/16 11:30:43;;;;;;;3.17;1.50;;;;;;;20.48;46.41;97870.22;2179269;82;21291;-77
2021/05/16 11:33:42;;;;;;;1.60;1.50;;;;;;;20.51;46.35;97866.12;2178760;82;21005;-78
2021/05/16 11:36:43;;;;;;;8.50;2.58;;;;;;;20.39;47.25;97864.00;2179485;82;20930;-79
2021/05/16 11:39:45;;;;;;;2.83;1.80;;;;;;;20.52;47.40;97860.34;2179849;82;21005;-77
2021/05/16 11:42:46;;;;;;;1.98;1.85;;;;;;;20.64;46.92;97863.33;2179416;82;21002;-78
2021/05/16 11:45:47;;;;;;;3.40;2.05;;;;;;;20.59;46.97;97864.45;2178932;82;21021;-79
2021/05/16 11:48:47;;;;;;;5.60;2.12;;;;;;;20.35;47.39;97865.02;2178972;82;20934;-76
2021/05/16 11:51:48;;;;;;;2.10;1.87;;;;;;;20.19;48.46;97871.91;2178982;82;21055;-77
2021/05/16 11:54:49;;;;;;;1.50;1.40;;;;;;;20.07;48.86;97871.09;2179112;82;20918;-77
2021/05/16 11:57:50;;;;;;;2.62;2.02;;;;;;;19.95;49.79;97875.11;2179081;82;20927;-76
2021/05/16 12:00:51;;;;;;;2.83;2.12;;;;;;;19.80;50.50;97874.37;2179144;82;20950;-76
2021/05/16 12:03:52;;;;;;;1.75;1.65;;;;;;;19.87;50.39;97869.23;2179401;82;20986;-77
2021/05/16 12:06:54;;;;;;;1.95;1.45;;;;;;;20.01;49.19;97869.55;2176008;82;20967;-76
2021/05/16 12:09:56;;;;;;;2.00;1.70;;;;;;;19.96;49.36;97859.16;2161659;82;21018;-77
2021/05/16 12:12:57;;;;;;;2.20;2.10;;;;;;;20.13;48.35;97863.75;2161814;82;21054;-76
2021/05/16 12:15:58;;;;;;;2.20;2.10;;;;;;;20.08;47.95;97861.75;2161558;82;20958;-79
2021/05/16 12:18:59;;;;;;;2.72;2.30;;;;;;;19.91;47.90;97862.42;2161598;82;20918;-77
2021/05/16 12:22:00;;;;;;;6.12;2.20;;;;;;;19.82;48.81;97861.94;2161506;82;21347;-78
2021/05/16 12:25:01;;;;;;;4.92;2.40;;;;;;;19.73;48.93;97861.39;2161572;82;20962;-77
2021/05/16 12:28:05;;;;;;;2.87;2.60;;;;;;;19.65;49.41;97862.16;2161477;82;21346;-76
2021/05/16 12:31:05;;;;;;;4.65;2.65;;;;;;;19.63;50.13;97861.36;2161647;82;21026;-77
2021/05/16 12:34:06;;;;;;;6.80;2.77;;;;;;;19.65;49.99;97859.51;2161701;82;21051;-77
2021/05/16 12:37:07;;;;;;;6.00;3.70;;;;;;;19.68;49.74;97858.06;2161738;82;21284;-77
2021/05/16 12:40:09;;;;;;;6.33;4.35;;;;;;;19.56;49.83;97855.91;2161470;82;21434;-78
2021/05/16 12:43:10;;;;;;;7.28;3.90;;;;;;;19.47;50.20;97857.56;2161607;82;21010;-77
2021/05/16 12:46:11;;;;;;;4.12;2.92;;;;;;;19.47;50.26;97852.27;2161497;82;20951;-79
2021/05/16 12:49:13;;;;;;;4.15;3.10;;;;;;;19.59;50.72;97850.95;2161566;82;20946;-77
2021/05/16 12:52:14;;;;;;;3.22;2.70;;;;;;;19.64;50.55;97855.14;2161693;82;20974;-77
2021/05/16 12:55:15;;;;;;;2.83;2.62;;;;;;;19.68;49.29;97850.58;2161589;82;20983;-77
2021/05/16 12:58:19;;;;;;;3.77;2.50;;;;;;;19.47;49.45;97860.67;2161633;82;21011;-77
2021/05/16 13:01:18;;;;;;;10.30;3.40;;;;;;;19.15;50.21;97856.63;2161413;82;21015;-77
2021/05/16 13:04:19;;;;;;;4.42;2.42;;;;;;;19.16;50.28;97857.03;2161571;82;20915;-77
2021/05/16 13:07:20;;;;;;;2.02;1.90;;;;;;;19.26;50.07;97851.33;2161457;81;20994;-77
2021/05/16 13:10:21;;;;;;;2.67;2.47;;;;;;;19.40;50.20;97851.65;2161394;82;20939;-77
2021/05/16 13:13:22;;;;;;;3.05;2.85;;;;;;;19.21;50.68;97857.72;2161574;82;20896;-76
2021/05/16 13:16:23;;;;;;;2.60;2.40;;;;;;;19.00;51.32;97853.61;2161444;82;21018;-77
2021/05/16 13:19:24;;;;;;;3.75;2.27;;;;;;;18.85;51.51;97860.79;2161444;82;20947;-78
2021/05/16 13:22:25;;;;;;;2.45;2.10;;;;;;;18.66;52.09;97861.06;2161467;82;21399;-77
2021/05/16 13:25:26;;;;;;;2.62;2.42;;;;;;;18.43;52.30;97860.52;2161274;82;20954;-78
2021/05/16 13:28:28;;;;;;;3.05;2.72;;;;;;;18.31;52.85;97860.95;2161449;82;20962;-77
2021/05/16 13:31:29;;;;;;;7.83;2.58;;;;;;;18.22;52.82;97854.21;2161461;82;20939;-77
2021/05/16 13:34:30;;;;;;;2.52;2.05;;;;;;;18.24;53.12;97856.34;2161456;82;20919;-76
2021/05/16 13:37:31;;;;;;;3.62;2.00;;;;;;;18.15;53.01;97857.48;2161510;82;21010;-77
2021/05/16 13:40:32;;;;;;;1.80;1.70;;;;;;;17.92;53.82;97851.25;2161383;82;21014;-77
2021/05/16 13:43:33;;;;;;;2.02;1.80;;;;;;;17.72;54.86;97848.81;2161375;82;20986;-76
2021/05/16 13:46:36;;;;;;;1.92;1.80;;;;;;;17.53;55.31;97848.97;2161449;82;21398;-78
2021/05/16 13:49:37;;;;;;;4.12;3.08;;;;;;;17.36;55.63;97852.13;2161500;81;21015;-77
2021/05/16 13:52:38;;;;;;;2.65;2.45;;;;;;;17.40;55.62;97850.27;2161592;82;21071;-77
2021/05/16 13:55:39;;;;;;;2.27;2.08;;;;;;;17.27;55.93;97846.25;2161638;82;21322;-76
2021/05/16 13:58:40;;;;;;;2.77;2.05;;;;;;;17.14;56.32;97851.03;2161594;82;21066;-75
2021/05/16 14:01:41;;;;;;;2.17;1.98;;;;;;;17.00;57.34;97845.30;2161449;82;20974;-78
2021/05/16 14:04:42;;;;;;;2.37;2.10;;;;;;;16.74;57.85;97852.66;2161836;82;21050;-78
2021/05/16 14:07:42;;;;;;;3.27;2.00;;;;;;;16.57;57.84;97850.46;2161828;82;21335;-79
2021/05/16 14:10:43;;;;;;;2.30;2.10;;;;;;;16.50;57.91;97852.41;2161924;82;20926;-78
2021/05/16 14:13:44;;;;;;;2.77;2.40;;;;;;;16.48;59.78;97850.27;2161727;82;20958;-78